createdAt,value
2022-08-07T00:01:44.631Z,47.79
2022-08-07T00:04:15.516Z,47.31
2022-08-07T00:06:51.562Z,47.66
2022-08-07T00:09:20.853Z,47.57
2022-08-07T00:11:55.615Z,47.75
2022-08-07T00:14:29.995Z,47.67
2022-08-07T00:16:59.179Z,47.62
2022-08-07T00:19:34.070Z,47.66
2022-08-07T00:22:34.487Z,47.61
2022-08-07T00:25:04.595Z,47.79
2022-08-07T00:27:52.913Z,47.59
2022-08-07T00:30:27.075Z,47.77
2022-08-07T00:32:56.339Z,47.81
2022-08-07T00:35:25.127Z,47.61
2022-08-07T00:37:52.985Z,47.59
2022-08-07T00:40:39.111Z,47.68
2022-08-07T00:43:59.339Z,47.99
2022-08-07T00:46:01.847Z,48.25
2022-08-07T00:48:31.063Z,48.29
2022-08-07T00:51:00.874Z,48.60
2022-08-07T00:53:39.053Z,48.47
2022-08-07T00:56:17.160Z,48.61
2022-08-07T00:58:47.167Z,48.67
2022-08-07T01:01:18.327Z,48.62
2022-08-07T01:03:56.552Z,48.63
2022-08-07T01:06:29.109Z,48.79
2022-08-07T01:08:58.381Z,48.40
2022-08-07T01:12:23.578Z,48.65
2022-08-07T01:14:17.051Z,48.92
2022-08-07T01:16:49.326Z,49.13
2022-08-07T01:19:19.953Z,49.20
2022-08-07T01:21:53.314Z,49.25
2022-08-07T01:24:26.673Z,49.20
2022-08-07T01:26:54.744Z,49.26
2022-08-07T01:29:27.909Z,49.30
2022-08-07T01:32:00.754Z,49.14
2022-08-07T01:34:33.591Z,49.25
2022-08-07T01:37:09.685Z,49.19
2022-08-07T01:39:39.503Z,49.22
2022-08-07T01:42:38.186Z,49.22
2022-08-07T01:45:03.895Z,49.09
2022-08-07T01:48:18.138Z,49.13
2022-08-07T01:50:29.002Z,49.12
2022-08-07T01:53:00.099Z,49.10
2022-08-07T01:55:29.358Z,49.11
2022-08-07T01:58:06.631Z,49.09
2022-08-07T02:00:51.627Z,49.14
2022-08-07T02:03:32.128Z,49.17
2022-08-07T02:06:31.604Z,49.05
2022-08-07T02:09:05.258Z,49.12
2022-08-07T02:12:03.887Z,49.04
2022-08-07T02:14:36.178Z,49.05
2022-08-07T02:17:06.267Z,48.92
2022-08-07T02:20:04.937Z,49.02
2022-08-07T02:22:25.959Z,49.14
2022-08-07T02:24:55.824Z,49.15
2022-08-07T02:27:24.136Z,48.97
2022-08-07T02:29:54.528Z,49.06
2022-08-07T02:32:27.021Z,49.06
2022-08-07T02:34:58.231Z,48.83
2022-08-07T02:37:28.419Z,49.25
2022-08-07T02:40:29.818Z,49.06
2022-08-07T02:42:58.050Z,48.97
2022-08-07T02:45:58.164Z,49.09
2022-08-07T02:48:15.509Z,49.14
2022-08-07T02:50:46.038Z,49.04
2022-08-07T02:53:15.901Z,49.13
2022-08-07T02:56:03.934Z,49.08
2022-08-07T02:58:35.113Z,49.03
2022-08-07T03:01:05.410Z,49.03
2022-08-07T03:03:49.844Z,48.96
2022-08-07T03:06:32.703Z,48.99
2022-08-07T03:09:02.770Z,48.91
2022-08-07T03:11:32.934Z,48.98
2022-08-07T03:14:06.938Z,48.79
2022-08-07T03:16:34.903Z,48.77
2022-08-07T03:19:03.468Z,48.85
2022-08-07T03:21:33.526Z,48.96
2022-08-07T03:24:20.228Z,49.03
2022-08-07T03:26:58.859Z,48.89
2022-08-07T03:29:29.887Z,48.89
2022-08-07T03:31:57.974Z,48.90
2022-08-07T03:34:27.616Z,48.74
2022-08-07T03:36:59.909Z,48.82
2022-08-07T03:39:45.808Z,48.79
2022-08-07T03:42:30.031Z,48.76
2022-08-07T03:44:58.271Z,48.83
2022-08-07T03:47:47.602Z,48.78
2022-08-07T03:50:17.573Z,48.60
2022-08-07T03:52:50.935Z,48.85
2022-08-07T03:55:19.136Z,48.64
2022-08-07T03:58:34.531Z,48.67
2022-08-07T04:00:39.351Z,48.84
2022-08-07T04:03:16.275Z,48.72
2022-08-07T04:05:45.814Z,48.60
2022-08-07T04:08:20.974Z,48.68
2022-08-07T04:10:54.058Z,48.67
2022-08-07T04:14:10.927Z,48.77
2022-08-07T04:16:32.691Z,48.73
2022-08-07T04:19:14.671Z,48.51
2022-08-07T04:22:04.898Z,48.77
2022-08-07T04:24:41.289Z,48.78
2022-08-07T04:27:20.240Z,48.49
2022-08-07T04:30:01.926Z,48.56
2022-08-07T04:32:48.967Z,48.64
2022-08-07T04:35:28.687Z,48.74
2022-08-07T04:38:07.990Z,48.72
2022-08-07T04:40:52.027Z,48.67
2022-08-07T04:44:12.905Z,48.71
2022-08-07T04:46:35.873Z,48.82
2022-08-07T04:49:17.843Z,48.90
2022-08-07T04:51:52.021Z,48.83
2022-08-07T04:54:22.899Z,49.01
2022-08-07T04:58:12.486Z,49.00
2022-08-07T05:00:14.159Z,48.99
2022-08-07T05:02:43.521Z,49.10
2022-08-07T05:05:53.799Z,49.06
2022-08-07T05:08:04.504Z,49.26
2022-08-07T05:10:35.130Z,49.24
2022-08-07T05:13:10.063Z,49.33
2022-08-07T05:15:53.855Z,49.26
2022-08-07T05:18:27.334Z,49.35
2022-08-07T05:21:05.848Z,49.50
2022-08-07T05:23:37.537Z,49.41
2022-08-07T05:26:13.822Z,49.42
2022-08-07T05:28:50.453Z,49.43
2022-08-07T05:31:23.509Z,49.52
2022-08-07T05:34:04.311Z,49.68
2022-08-07T05:36:36.047Z,49.73
2022-08-07T05:40:05.842Z,49.60
2022-08-07T05:42:06.343Z,49.75
2022-08-07T05:44:41.552Z,49.79
2022-08-07T05:47:21.372Z,49.80
2022-08-07T05:50:09.039Z,49.75
2022-08-07T05:52:37.959Z,49.91
2022-08-07T05:55:10.753Z,49.73
2022-08-07T05:57:42.526Z,49.73
2022-08-07T06:00:16.531Z,49.71
2022-08-07T06:02:51.880Z,49.65
2022-08-07T06:05:28.175Z,49.46
2022-08-07T06:08:13.235Z,49.52
2022-08-07T06:10:51.210Z,49.49
2022-08-07T06:13:20.876Z,49.36
2022-08-07T06:16:10.196Z,49.50
2022-08-07T06:18:43.144Z,49.14
2022-08-07T06:22:16.519Z,49.02
2022-08-07T06:24:45.945Z,48.91
2022-08-07T06:26:58.404Z,49.09
2022-08-07T06:29:31.536Z,48.72
2022-08-07T06:31:59.860Z,48.83
2022-08-07T06:34:30.508Z,48.80
2022-08-07T06:37:02.589Z,48.73
2022-08-07T06:40:13.411Z,49.08
2022-08-07T06:42:33.144Z,48.71
2022-08-07T06:45:12.481Z,48.65
2022-08-07T06:47:57.807Z,48.61
2022-08-07T06:50:30.675Z,48.59
2022-08-07T06:53:04.188Z,48.46
2022-08-07T06:55:54.137Z,48.65
2022-08-07T06:58:24.525Z,48.84
2022-08-07T07:01:03.508Z,48.86
2022-08-07T07:03:47.591Z,48.52
2022-08-07T07:06:26.068Z,48.62
2022-08-07T07:08:58.144Z,48.60
2022-08-07T07:12:10.788Z,48.75
2022-08-07T07:14:14.341Z,48.54
2022-08-07T07:16:49.683Z,48.67
2022-08-07T07:19:55.463Z,48.73
2022-08-07T07:22:33.785Z,48.56
2022-08-07T07:25:14.240Z,48.52
2022-08-07T07:27:56.167Z,48.57
2022-08-07T07:30:38.616Z,48.65
2022-08-07T07:33:11.443Z,48.02
2022-08-07T07:35:44.025Z,48.29
2022-08-07T07:38:24.344Z,48.38
2022-08-07T07:40:57.652Z,48.03
2022-08-07T07:44:14.344Z,47.95
2022-08-07T07:46:53.525Z,47.69
2022-08-07T07:49:09.122Z,47.82
2022-08-07T07:51:58.232Z,48.32
2022-08-07T07:54:27.719Z,48.20
2022-08-07T07:56:57.500Z,48.67
2022-08-07T07:59:52.732Z,48.88
2022-08-07T08:02:33.934Z,49.03
2022-08-07T08:05:01.235Z,49.06
2022-08-07T08:07:35.773Z,49.06
2022-08-07T08:10:10.839Z,48.88
2022-08-07T08:12:52.176Z,49.07
2022-08-07T08:15:26.930Z,49.04
2022-08-07T08:18:18.393Z,48.89
2022-08-07T08:20:47.962Z,48.54
2022-08-07T08:23:34.801Z,48.78
2022-08-07T08:26:23.369Z,47.27
2022-08-07T08:28:54.665Z,47.83
2022-08-07T08:31:30.399Z,47.15
2022-08-07T08:34:12.474Z,47.67
2022-08-07T08:36:49.398Z,48.83
2022-08-07T08:39:25.711Z,48.77
2022-08-07T08:42:09.259Z,49.05
2022-08-07T08:44:44.670Z,48.86
2022-08-07T08:47:17.434Z,48.80
2022-08-07T08:50:02.715Z,47.88
2022-08-07T08:52:36.100Z,48.80
2022-08-07T08:55:07.716Z,48.78
2022-08-07T08:57:36.843Z,48.13
2022-08-07T09:00:08.428Z,46.23
2022-08-07T09:02:39.048Z,46.90
2022-08-07T09:05:14.767Z,48.23
2022-08-07T09:07:46.149Z,46.77
2022-08-07T09:10:27.424Z,47.13
2022-08-07T09:12:58.471Z,44.57
2022-08-07T09:16:20.695Z,45.60
2022-08-07T09:18:25.785Z,46.85
2022-08-07T09:21:01.919Z,47.52
2022-08-07T09:24:30.793Z,47.88
2022-08-07T09:26:25.612Z,48.91
2022-08-07T09:30:05.875Z,49.28
2022-08-07T09:31:48.616Z,49.68
2022-08-07T09:34:21.842Z,49.42
2022-08-07T09:36:57.191Z,49.52
2022-08-07T09:39:55.212Z,49.71
2022-08-07T09:42:25.043Z,50.14
2022-08-07T09:47:24.823Z,50.20
2022-08-07T09:47:59.590Z,50.47
2022-08-07T09:50:32.903Z,50.49
2022-08-07T09:53:02.265Z,50.57
2022-08-07T09:56:03.467Z,50.71
2022-08-07T09:58:32.389Z,50.67
2022-08-07T10:01:08.412Z,50.67
2022-08-07T10:04:14.224Z,50.61
2022-08-07T10:07:01.928Z,51.03
2022-08-07T10:10:00.229Z,50.86
2022-08-07T10:12:39.817Z,50.95
2022-08-07T10:15:26.178Z,51.45
2022-08-07T10:18:09.629Z,51.58
2022-08-07T10:20:44.617Z,51.78
2022-08-07T10:24:05.694Z,51.78
2022-08-07T10:26:17.701Z,51.95
2022-08-07T10:28:56.812Z,51.87
2022-08-07T10:31:45.215Z,52.18
2022-08-07T10:34:27.076Z,51.99
2022-08-07T10:37:05.574Z,52.01
2022-08-07T10:40:03.106Z,52.25
2022-08-07T10:42:37.277Z,52.17
2022-08-07T10:45:11.122Z,52.28
2022-08-07T10:47:51.594Z,52.35
2022-08-07T10:50:25.759Z,52.24
2022-08-07T10:53:08.344Z,52.59
2022-08-07T10:55:45.457Z,52.28
2022-08-07T10:58:17.134Z,52.43
2022-08-07T11:00:50.562Z,52.64
2022-08-07T11:03:28.207Z,52.60
2022-08-07T11:06:08.509Z,52.49
2022-08-07T11:08:41.391Z,52.44
2022-08-07T11:11:10.318Z,52.39
2022-08-07T11:14:44.470Z,52.32
2022-08-07T11:16:30.586Z,52.16
2022-08-07T11:19:00.247Z,52.04
2022-08-07T11:21:31.924Z,52.02
2022-08-07T11:24:03.384Z,52.29
2022-08-07T11:26:33.273Z,52.36
2022-08-07T11:29:13.163Z,52.35
2022-08-07T11:32:02.554Z,52.23
2022-08-07T11:34:32.800Z,52.82
2022-08-07T11:37:04.995Z,52.77
2022-08-07T11:40:00.178Z,52.70
2022-08-07T11:42:33.656Z,52.74
2022-08-07T11:45:08.229Z,52.67
2022-08-07T11:47:56.606Z,53.24
2022-08-07T11:50:33.164Z,53.12
2022-08-07T11:53:05.834Z,52.93
2022-08-07T11:56:09.619Z,52.84
2022-08-07T11:58:35.376Z,52.82
2022-08-07T12:01:11.509Z,52.68
2022-08-07T12:03:55.368Z,52.48
2022-08-07T12:06:38.981Z,52.68
2022-08-07T12:09:09.605Z,52.56
2022-08-07T12:12:09.764Z,52.56
2022-08-07T12:14:37.316Z,52.73
2022-08-07T12:17:06.713Z,52.63
2022-08-07T12:20:02.741Z,52.79
2022-08-07T12:22:39.149Z,52.59
2022-08-07T12:26:05.583Z,52.46
2022-08-07T12:28:31.019Z,52.37
2022-08-07T12:31:00.875Z,52.42
2022-08-07T12:34:00.611Z,52.25
2022-08-07T12:36:19.956Z,52.14
2022-08-07T12:39:03.342Z,52.10
2022-08-07T12:41:52.178Z,51.96
2022-08-07T12:44:21.882Z,52.17
2022-08-07T12:47:08.084Z,52.32
2022-08-07T12:49:48.567Z,52.43
2022-08-07T12:52:23.118Z,52.70
2022-08-07T12:54:59.051Z,52.67
2022-08-07T12:57:39.307Z,52.69
2022-08-07T13:00:32.797Z,52.95
2022-08-07T13:03:27.071Z,52.75
2022-08-07T13:06:16.874Z,52.82
2022-08-07T13:08:52.787Z,53.01
2022-08-07T13:11:27.341Z,53.10
2022-08-07T13:13:57.702Z,53.19
2022-08-07T13:16:31.195Z,53.48
2022-08-07T13:19:02.757Z,53.61
2022-08-07T13:21:50.504Z,53.29
2022-08-07T13:24:21.122Z,53.45
2022-08-07T13:26:55.689Z,53.62
2022-08-07T13:29:25.568Z,53.55
2022-08-07T13:32:06.238Z,53.31
2022-08-07T13:34:48.599Z,53.29
2022-08-07T13:37:21.741Z,53.33
2022-08-07T13:40:33.098Z,53.27
2022-08-07T13:42:40.355Z,53.31
2022-08-07T13:46:06.233Z,53.48
2022-08-07T13:48:06.093Z,53.57
2022-08-07T13:50:44.521Z,53.58
2022-08-07T13:53:24.169Z,53.46
2022-08-07T13:55:54.727Z,53.54
2022-08-07T13:58:42.055Z,53.65
2022-08-07T14:01:24.788Z,53.75
2022-08-07T14:04:07.236Z,53.79
2022-08-07T14:06:36.678Z,53.88
2022-08-07T14:09:07.178Z,53.65
2022-08-07T14:11:53.630Z,53.72
2022-08-07T14:14:28.412Z,53.57
2022-08-07T14:16:59.993Z,53.83
2022-08-07T14:20:41.229Z,54.02
2022-08-07T14:22:38.148Z,53.75
2022-08-07T14:25:08.623Z,53.97
2022-08-07T14:28:10.895Z,53.46
2022-08-07T14:33:15.599Z,53.10
2022-08-07T14:35:55.691Z,53.30
2022-08-07T14:38:30.919Z,53.12
2022-08-07T14:41:04.122Z,53.19
2022-08-07T14:43:57.646Z,53.04
2022-08-07T14:49:17.427Z,53.33
2022-08-07T14:52:04.913Z,53.43
2022-08-07T14:54:42.851Z,53.23
2022-08-07T14:57:18.860Z,53.71
2022-08-07T15:00:05.821Z,53.45
2022-08-07T15:02:35.206Z,53.60
2022-08-07T15:05:20.493Z,53.54
2022-08-07T15:10:58.696Z,53.57
2022-08-07T15:13:35.865Z,53.72
2022-08-07T15:16:11.477Z,53.40
2022-08-07T15:18:40.126Z,53.35
2022-08-07T15:21:58.428Z,53.54
2022-08-07T15:25:15.837Z,53.52
2022-08-07T15:27:01.176Z,53.26
2022-08-07T15:35:08.646Z,53.23
2022-08-07T15:38:17.336Z,53.37
2022-08-07T15:40:34.563Z,53.36
2022-08-07T15:46:32.129Z,53.41
2022-08-07T15:49:03.725Z,53.47
2022-08-07T15:54:27.048Z,53.62
2022-08-07T15:56:57.282Z,53.74
2022-08-07T15:59:39.736Z,53.95
2022-08-07T16:02:15.194Z,54.02
2022-08-07T16:04:44.062Z,54.09
2022-08-07T16:08:32.439Z,53.86
2022-08-07T16:10:02.862Z,54.07
2022-08-07T16:12:34.985Z,54.21
2022-08-07T16:15:10.266Z,54.22
2022-08-07T16:18:01.697Z,54.37
2022-08-07T16:20:43.044Z,54.33
2022-08-07T16:23:53.518Z,54.27
2022-08-07T16:26:16.401Z,54.21
2022-08-07T16:30:06.346Z,54.17
2022-08-07T16:31:58.288Z,54.30
2022-08-07T16:34:28.444Z,54.57
2022-08-07T16:38:03.357Z,54.42
2022-08-07T16:40:05.185Z,54.27
2022-08-07T16:42:36.501Z,54.40
2022-08-07T16:45:15.557Z,54.39
2022-08-07T16:48:28.467Z,54.31
2022-08-07T16:51:21.620Z,54.27
2022-08-07T16:54:19.035Z,54.41
2022-08-07T16:56:57.260Z,54.23
2022-08-07T16:59:45.786Z,54.52
2022-08-07T17:02:51.164Z,54.21
2022-08-07T17:06:02.060Z,53.94
2022-08-07T17:08:20.923Z,53.92
2022-08-07T17:10:55.628Z,54.02
2022-08-07T17:13:41.898Z,53.93
2022-08-07T17:16:24.894Z,53.96
2022-08-07T17:19:01.337Z,54.11
2022-08-07T17:21:50.669Z,54.20
2022-08-07T17:24:28.039Z,54.28
2022-08-07T17:26:56.715Z,54.55
2022-08-07T17:30:16.083Z,54.29
2022-08-07T17:32:30.919Z,54.50
2022-08-07T17:35:51.679Z,54.33
2022-08-07T17:38:08.173Z,54.29
2022-08-07T17:40:50.392Z,54.40
2022-08-07T17:43:20.024Z,54.33
2022-08-07T17:46:11.388Z,54.33
2022-08-07T17:48:41.036Z,54.17
2022-08-07T17:51:11.587Z,54.39
2022-08-07T17:54:00.934Z,54.48
2022-08-07T17:56:30.745Z,54.35
2022-08-07T17:59:00.732Z,54.38
2022-08-07T18:01:36.843Z,54.31
2022-08-07T18:04:16.513Z,54.17
2022-08-07T18:06:47.305Z,54.50
2022-08-07T18:10:05.077Z,54.63
2022-08-07T18:12:28.650Z,54.22
2022-08-07T18:15:00.883Z,54.40
2022-08-07T18:18:47.682Z,54.55
2022-08-07T18:21:03.599Z,54.59
2022-08-07T18:23:41.872Z,54.57
2022-08-07T18:26:00.993Z,54.67
2022-08-07T18:28:34.385Z,54.60
2022-08-07T18:31:09.240Z,54.38
2022-08-07T18:33:56.003Z,54.45
2022-08-07T18:36:33.274Z,54.30
2022-08-07T18:40:08.670Z,54.33
2022-08-07T18:41:56.326Z,54.17
2022-08-07T18:44:31.535Z,54.41
2022-08-07T18:47:02.377Z,54.35
2022-08-07T18:50:31.879Z,54.62
2022-08-07T18:52:52.754Z,54.55
2022-08-07T18:55:41.056Z,54.58
2022-08-07T18:58:29.764Z,54.47
2022-08-07T19:01:07.367Z,54.65
2022-08-07T19:03:59.119Z,54.48
2022-08-07T19:06:33.693Z,54.71
2022-08-07T19:09:09.292Z,54.66
2022-08-07T19:12:05.663Z,54.68
2022-08-07T19:15:00.789Z,54.60
2022-08-07T19:18:01.512Z,54.60
2022-08-07T19:20:28.895Z,54.68
2022-08-07T19:23:03.259Z,54.81
2022-08-07T19:26:22.769Z,54.67
2022-08-07T19:30:55.162Z,54.85
2022-08-07T19:31:37.385Z,54.70
2022-08-07T19:34:14.819Z,54.93
2022-08-07T19:37:10.423Z,54.75
2022-08-07T19:39:57.251Z,54.69
2022-08-07T19:42:30.268Z,54.84
2022-08-07T19:45:00.674Z,54.90
2022-08-07T19:47:38.256Z,54.88
2022-08-07T19:50:41.499Z,54.83
2022-08-07T19:53:00.981Z,54.89
2022-08-07T19:55:46.812Z,55.03
2022-08-07T19:58:28.000Z,54.76
2022-08-07T20:00:57.235Z,54.87
2022-08-07T20:03:33.642Z,54.75
2022-08-07T20:06:06.033Z,54.75
2022-08-07T20:08:34.566Z,54.66
2022-08-07T20:11:03.931Z,54.86
2022-08-07T20:13:43.224Z,55.05
2022-08-07T20:16:15.980Z,54.93
2022-08-07T20:18:59.072Z,54.92
2022-08-07T20:21:29.120Z,54.70
2022-08-07T20:24:15.040Z,54.99
2022-08-07T20:26:50.054Z,54.74
2022-08-07T20:29:47.873Z,54.79
2022-08-07T20:32:23.102Z,54.77
2022-08-07T20:34:55.017Z,54.88
2022-08-07T20:37:25.380Z,54.99
2022-08-07T20:40:03.265Z,54.74
2022-08-07T20:42:33.333Z,54.94
2022-08-07T20:45:01.372Z,54.77
2022-08-07T20:47:55.434Z,54.92
2022-08-07T20:50:20.247Z,54.65
2022-08-07T20:52:51.061Z,54.99
2022-08-07T20:55:23.834Z,54.78
2022-08-07T20:58:03.743Z,55.05
2022-08-07T21:00:42.629Z,55.00
2022-08-07T21:03:11.943Z,54.93
2022-08-07T21:05:50.811Z,54.95
2022-08-07T21:08:37.297Z,54.97
2022-08-07T21:11:07.469Z,54.88
2022-08-07T21:13:57.190Z,54.88
2022-08-07T21:16:29.281Z,54.98
2022-08-07T21:18:57.371Z,54.72
2022-08-07T21:21:27.826Z,54.83
2022-08-07T21:23:59.898Z,54.91
2022-08-07T21:26:30.795Z,55.12
2022-08-07T21:29:02.190Z,54.96
2022-08-07T21:32:10.857Z,54.91
2022-08-07T21:34:31.624Z,54.89
2022-08-07T21:37:01.366Z,54.99
2022-08-07T21:39:48.200Z,55.05
2022-08-07T21:42:41.703Z,55.04
2022-08-07T21:46:05.256Z,54.97
2022-08-07T21:47:59.831Z,55.11
2022-08-07T21:50:32.710Z,55.13
2022-08-07T21:53:07.658Z,54.95
2022-08-07T21:55:42.332Z,54.88
2022-08-07T21:58:12.161Z,54.99
2022-08-07T22:00:41.247Z,55.01
2022-08-07T22:03:11.139Z,54.95
2022-08-07T22:05:49.806Z,55.11
2022-08-07T22:08:18.664Z,54.95
2022-08-07T22:10:49.671Z,55.12
2022-08-07T22:13:24.643Z,55.01
2022-08-07T22:16:39.066Z,54.94
2022-08-07T22:18:56.999Z,54.98
2022-08-07T22:22:05.410Z,54.88
2022-08-07T22:24:16.237Z,54.97
2022-08-07T22:26:46.486Z,54.98
2022-08-07T22:29:16.708Z,55.14
2022-08-07T22:32:05.496Z,55.13
2022-08-07T22:34:37.108Z,55.00
2022-08-07T22:37:09.665Z,55.14
2022-08-07T22:39:52.550Z,54.97
2022-08-07T22:42:25.994Z,55.32
2022-08-07T22:44:59.755Z,55.06
2022-08-07T22:47:34.018Z,55.22
2022-08-07T22:50:11.121Z,55.23
2022-08-07T22:52:59.949Z,55.04
2022-08-07T22:55:30.765Z,55.16
2022-08-07T22:58:03.798Z,55.00
2022-08-07T23:00:33.448Z,55.19
2022-08-07T23:03:04.208Z,55.08
2022-08-07T23:06:07.730Z,55.01
2022-08-07T23:08:47.936Z,55.21
2022-08-07T23:11:25.779Z,55.09
2022-08-07T23:14:15.501Z,55.22
2022-08-07T23:16:54.685Z,55.13
2022-08-07T23:19:51.401Z,55.04
2022-08-07T23:22:24.002Z,55.17
2022-08-07T23:24:55.682Z,55.03
2022-08-07T23:27:33.952Z,55.08
2022-08-07T23:30:39.126Z,55.30
2022-08-07T23:34:23.925Z,55.37
2022-08-07T23:36:03.758Z,55.23
2022-08-07T23:38:47.061Z,55.17
2022-08-07T23:41:33.426Z,55.19
2022-08-07T23:44:29.622Z,55.34
2022-08-07T23:47:10.967Z,55.24
2022-08-07T23:49:50.423Z,55.10
2022-08-07T23:53:00.816Z,55.33
2022-08-07T23:55:09.665Z,55.34
2022-08-07T23:57:37.736Z,55.23
